РПИ Самара

 

Самарский центр обслуживания воздушного движения (ОВД) является структурным подразделением VATRUS.

В зону ответственности центра в сети VATSIM входит воздушное пространство над территориями республик Татарстан, Марий Эл, Башкортостан, Мордовия, а также Оренбургской, Самарской, Саратовской, Ульяновской и Пензенской областями. Обслуживаемая площадь, в воздушном пространстве которой решаются задачи УВД, составляет более 700 тысяч км² над территорией Поволжского федерального округа.

В пространстве РПИ находятся более 180 аэродромов и посадочных площадок различных ведомств, в том числе 8 международных аэропортов. Также на территории района находится около десятка учебных аэродромов летных училищ России - УИГА, БЛУГА, СПбГУГА и ККЛУГА.

 

Средства связи ОВД / ATC Units:

RU_WRC_FSS - Москва-Радар - UMMV, UUWV, UWWW - 135.320

UWWW_CTR - Самара-Контроль - РЦ Самара 132.900

UWWW_1_CTR - Самара-Контроль - Сектор 1 - 132.900

UWWW_2_CTR - Самара-Контроль - Сектор 2 (Ульяновск) - 132.300

UWWW_3_CTR - Самара-Контроль - Сектор 3 - 134.700

UWWW_4_CTR - Самара-Контроль - Сектор 4 (Саратов) - 135.900

UWWW_5_CTR - Самара-Контроль - Сектор 5 (Пенза) - 134.300

UWWW_6_CTR - Самара-Контроль - Сектор 6 (Уфа-Север) - 126.900

UWWW_7_CTR - Самара-Контроль - Сектор 7 (Уфа-Юг) - 132.500

UWWW_8_CTR - Самара-Контроль - Сектор 8 (Оренбург) - 132.000

UWWW_9_CTR - Самара-Контроль - Сектор 9 (Казань-Север) - 133.600

UWWW_10_CTR - Самара-Контроль - Сектор 10 (Казань-Юг) - 133.100

 

Samara FIR

Samara Air trafic control center is a structural part of VATRUS Division.

FIR area of responsibility in VATSIM includes airspace over Tatarstan, Maryy El, Mordovia republics, as well as Orenburg, Samara, Saratov, Ulyanovsk and Penza regions.

Руководитель РПИ

Alexander Petrenko

Инструкторы РПИ
Ivan Chokenyuk * (Controller)
Ivan Skatov (Instructor)
Sergei Stetsko * (Controller)
Входит в состав
ЗЦ Москва

Диспетчеры РПИ

Диспетчер Рейтинг Допуски *
Alexander Petrenko Controller UWWW_CTR
Alexey Dobronravov Instructor UWWW_CTR
Artem Smorchkov Controller UWWW_CTR
Dmitry Markus Instructor UWWW_CTR
Ivan Skatov Instructor UWWW_CTR
Maxim Tsygankov Instructor UWWW_CTR
Sergei Stetsko Controller UWWW_CTR
Yulia Goryacheva Instructor UWWW_CTR
Yury Koryagin Instructor UWWW_CTR
Arthur Kurbangaleev Student UWWW_GND
Denis Rybalkin Student UWWW_GND
Kirill Shabunin Senior Controller UWKD_APP(UWKD+UWKB+UWKS+UWKE+UWKJ)
Pavel Yashin Student 2 UWKD_GND
Sergey Soshnikov Student UWWW_GND
Vsevolod Skryabin Student 2 UWOO_GND!!!

Аэропорты РПИ

ICAO Город Название Погода
UWWW Самара Курумоч UWWW 020200Z 03003MPS CAVOK 12/08 Q1011 R33/CLRD60 NOSIG RMK QFE747/0997
UWUU Уфа Уфа UWUU 020200Z VRB01MPS CAVOK 11/10 Q1013 R14R/0///60 NOSIG
UWKB Бугульма Бугульма
UWKJ Йошкар-Ола Йошкар-Ола
UWKD Казань Казань UWKD 020200Z 04004MPS CAVOK 14/10 Q1015 R11/70D NOSIG RMK QFE751/1002
UWKE Нижнекамск Бегишево UWKE 020200Z 05004MPS CAVOK 13/12 Q1015 R03/090070 NOSIG RMK QFE744/0992
UWOO Оренбург Оренбург UWOO 020200Z 06003MPS 9999 FEW040CB 17/07 Q1011 R26/////// NOSIG RMK QFE747/0997
UWOR Орск Орск UWOR 020200Z 32002MPS CAVOK 14/06 Q1011 R25/CLRD65 NOSIG RMK QFE735/0980
UWPP Пенза Пенза
UWPS Саранск Саранск UWPS 020200Z 01005MPS CAVOK 11/10 Q1014 R02/290555 NOSIG RMK QFE741
UWSG Саратов Гагарин UWSG 020200Z 35005MPS 9999 SCT009 SCT030CB 11/10 Q1008 R26/150068 NOSIG RMK QFE753/1004
UWSS Саратов Саратов
UWLL Ульяновск-УЛК Ульяновск UWLL 020200Z 33003MPS 310V010 CAVOK 14/13 Q1013 R02/190060 NOSIG RMK QFE748/0997
UWLW Ульяновск-УЛС Восточный UWLW 020200Z 04004MPS CAVOK 13/11 Q1013 R02/CLRD60 NOSIG RMK QFE753/1004
UWKS Чебоксары Чебоксары UWKS 020200Z 03003MPS CAVOK 13/08 Q1017 R06/010060 NOSIG RMK QFE747